Time;durP1;ratioP1;P1;durP2;ratioP2;P2;SDS_P1;SDS_P2;PMS_P1;PMS_P2;Temp;Humidity;BMP_temperature;BMP_pressure;BME280_temperature;BME280_humidity;BME280_pressure;Samples;Min_cycle;Max_cycle;Signal;HPM_P1;HPM_P2
2021/03/06 00:01:01;;;;;;;3.03;1.57;;;12.50;99.90;;;;;;20695621;28;20218;-77
2021/03/06 00:11:06;;;;;;;4.23;1.90;;;12.60;99.90;;;;;;20697648;28;20565;-77
2021/03/06 00:21:08;;;;;;;7.60;3.10;;;12.90;99.90;;;;;;20732055;28;20233;-74
2021/03/06 00:31:23;;;;;;;0.83;0.83;;;12.80;99.90;;;;;;20755924;28;20225;-76
2021/03/06 00:41:26;;;;;;;1.77;1.67;;;12.80;99.90;;;;;;20694465;28;20231;-74
2021/03/06 00:51:29;;;;;;;2.50;1.47;;;12.50;99.90;;;;;;20695102;28;20195;-74
2021/03/06 01:11:57;;;;;;;2.70;2.33;;;12.30;99.90;;;;;;20594562;28;20971;-75
2021/03/06 01:22:00;;;;;;;4.20;1.60;;;11.90;99.90;;;;;;20609776;28;20234;-75
2021/03/06 01:32:12;;;;;;;0.77;0.67;;;11.70;99.90;;;;;;20624104;28;20617;-75
2021/03/06 01:42:16;;;;;;;3.50;1.30;;;11.30;99.90;;;;;;20689849;28;20273;-76
2021/03/06 01:52:19;;;;;;;1.23;0.73;;;11.30;99.90;;;;;;20691020;28;20199;-75
2021/03/06 02:02:29;;;;;;;5.00;2.43;;;11.20;99.90;;;;;;20703291;28;20647;-77
2021/03/06 02:12:38;;;;;;;3.37;2.17;;;11.70;99.90;;;;;;20704679;28;20210;-78
2021/03/06 02:22:54;;;;;;;2.23;2.03;;;12.10;99.90;;;;;;20655100;28;20693;-79
2021/03/06 02:33:04;;;;;;;1.30;1.23;;;12.10;99.90;;;;;;20635775;28;20465;-77
2021/03/06 02:43:09;;;;;;;3.73;1.70;;;12.10;99.90;;;;;;20699658;28;20218;-77
2021/03/06 02:53:13;;;;;;;0.47;0.47;;;11.80;99.90;;;;;;20702007;28;20557;-76
2021/03/06 03:03:29;;;;;;;1.57;1.30;;;11.70;99.90;;;;;;20684134;28;20308;-76
2021/03/06 03:13:39;;;;;;;1.90;1.13;;;11.60;99.90;;;;;;20680276;28;20233;-77
2021/03/06 03:23:44;;;;;;;1.53;1.43;;;11.50;99.90;;;;;;20699000;28;20226;-75
2021/03/06 03:33:48;;;;;;;1.20;0.83;;;11.50;99.90;;;;;;20677033;28;20666;-74
2021/03/06 03:43:51;;;;;;;16.37;2.60;;;11.30;99.90;;;;;;20614238;28;20227;-74
2021/03/06 03:53:55;;;;;;;1.77;1.60;;;11.50;99.90;;;;;;20616817;28;20775;-75
2021/03/06 04:04:00;;;;;;;1.80;1.70;;;11.40;99.90;;;;;;20613955;28;20326;-76
2021/03/06 04:14:03;;;;;;;3.77;1.60;;;11.10;99.90;;;;;;20616018;28;20447;-75
2021/03/06 04:24:08;;;;;;;2.13;2.00;;;10.70;99.90;;;;;;20534503;28;20687;-74
2021/03/06 04:34:25;;;;;;;0.90;0.90;;;10.30;99.90;;;;;;20589741;28;20454;-75
2021/03/06 04:44:28;;;;;;;1.77;0.87;;;10.40;99.90;;;;;;20693713;28;20207;-74
2021/03/06 04:54:32;;;;;;;1.60;1.47;;;10.30;99.90;;;;;;20692377;28;20226;-75
2021/03/06 05:04:44;;;;;;;2.10;1.83;;;10.20;99.90;;;;;;20638112;28;20326;-74
2021/03/06 05:14:47;;;;;;;1.83;0.80;;;10.20;99.90;;;;;;20531007;28;20227;-75
2021/03/06 05:24:50;;;;;;;0.97;0.70;;;11.10;99.90;;;;;;20598893;28;20203;-76
2021/03/06 05:35:07;;;;;;;0.73;0.73;;;11.60;99.90;;;;;;20659615;28;20233;-75
2021/03/06 05:45:11;;;;;;;1.10;1.07;;;11.70;99.90;;;;;;20709477;28;20205;-75
2021/03/06 05:55:17;;;;;;;2.77;0.97;;;11.70;99.90;;;;;;20708854;28;20790;-74
2021/03/06 06:05:29;;;;;;;1.73;0.90;;;11.80;99.90;;;;;;20708811;28;21127;-76
2021/03/06 06:15:36;;;;;;;0.57;0.53;;;11.70;99.90;;;;;;20706848;28;20222;-75
2021/03/06 06:25:43;;;;;;;1.60;1.00;;;11.60;99.90;;;;;;20632992;28;20547;-76
2021/03/06 06:35:59;;;;;;;1.33;1.23;;;11.60;99.90;;;;;;20666715;28;20307;-75
2021/03/06 06:46:03;;;;;;;0.87;0.80;;;11.70;99.90;;;;;;20687679;28;20202;-76
2021/03/06 06:56:25;;;;;;;0.27;0.27;;;11.70;99.90;;;;;;20707440;28;20223;-76
2021/03/06 07:06:29;;;;;;;0.97;0.93;;;12.10;99.90;;;;;;20572555;28;20391;-77
2021/03/06 07:16:57;;;;;;;1.87;1.27;;;12.20;99.90;;;;;;20537609;28;20248;-76
2021/03/06 07:27:01;;;;;;;0.37;0.37;;;12.50;99.90;;;;;;20604725;28;20577;-75
2021/03/06 07:37:06;;;;;;;1.03;1.00;;;12.70;99.90;;;;;;20666938;28;20230;-75
2021/03/06 07:47:13;;;;;;;1.03;1.03;;;12.80;99.90;;;;;;20701384;28;20671;-70
2021/03/06 07:57:17;;;;;;;0.87;0.87;;;13.00;99.90;;;;;;20677080;28;20700;-75
2021/03/06 08:07:22;;;;;;;8.50;1.70;;;13.40;99.90;;;;;;20678275;28;20219;-75
2021/03/06 08:17:36;;;;;;;0.90;0.90;;;13.80;99.90;;;;;;20687884;28;20583;-74
2021/03/06 08:27:39;;;;;;;1.17;0.73;;;14.10;99.90;;;;;;20608906;28;20215;-76
2021/03/06 08:37:43;;;;;;;0.70;0.70;;;14.20;99.90;;;;;;20613697;28;20234;-75
2021/03/06 08:47:47;;;;;;;0.27;0.17;;;14.60;99.90;;;;;;20607773;28;20202;-76
2021/03/06 08:57:51;;;;;;;1.10;1.00;;;14.80;99.90;;;;;;20607725;28;20223;-75
2021/03/06 09:07:55;;;;;;;0.37;0.37;;;14.80;99.90;;;;;;20607627;28;20232;-73
2021/03/06 09:18:00;;;;;;;1.27;1.00;;;14.80;99.90;;;;;;20600913;28;20887;-73
2021/03/06 09:28:05;;;;;;;2.63;0.77;;;14.80;99.90;;;;;;20564517;28;20192;-73
2021/03/06 09:38:12;;;;;;;0.80;0.70;;;14.80;99.90;;;;;;20566310;28;20310;-73
2021/03/06 09:48:15;;;;;;;0.93;0.23;;;15.10;99.90;;;;;;20564610;28;20218;-74
2021/03/06 09:58:23;;;;;;;0.40;0.40;;;15.30;99.90;;;;;;20579076;28;20303;-75
2021/03/06 10:08:27;;;;;;;0.57;0.50;;;15.40;99.90;;;;;;20564580;28;20220;-74
2021/03/06 10:18:37;;;;;;;1.37;1.23;;;15.70;99.90;;;;;;20568803;28;20305;-75
2021/03/06 10:28:44;;;;;;;0.90;0.90;;;15.50;99.90;;;;;;20596722;28;20724;-74
2021/03/06 10:38:48;;;;;;;13.17;1.27;;;16.00;99.90;;;;;;20616887;28;20215;-74
2021/03/06 10:48:54;;;;;;;1.00;0.57;;;15.90;99.90;;;;;;20579433;28;20878;-75
2021/03/06 10:59:01;;;;;;;2.90;1.00;;;15.80;99.90;;;;;;20580446;28;20219;-74
2021/03/06 11:09:09;;;;;;;2.27;1.73;;;16.60;99.90;;;;;;20617281;28;20223;-74
2021/03/06 11:19:25;;;;;;;3.87;1.57;;;16.80;99.90;;;;;;20595049;28;20579;-74
2021/03/06 11:29:29;;;;;;;0.80;0.70;;;17.00;99.90;;;;;;20537463;28;20546;-77
2021/03/06 11:39:35;;;;;;;3.70;1.23;;;17.00;99.90;;;;;;20560010;28;20231;-77
2021/03/06 11:49:40;;;;;;;1.50;1.33;;;17.30;99.90;;;;;;20567280;28;20192;-77
2021/03/06 11:59:43;;;;;;;1.90;0.57;;;16.90;99.90;;;;;;20573502;28;20649;-72
2021/03/06 12:09:49;;;;;;;0.40;0.40;;;17.20;99.90;;;;;;20538517;28;20567;-74
2021/03/06 12:19:52;;;;;;;0.50;0.50;;;17.20;99.90;;;;;;20556487;28;20258;-76
2021/03/06 12:29:57;;;;;;;3.80;1.97;;;17.10;99.90;;;;;;20620326;28;20207;-76
2021/03/06 12:40:10;;;;;;;3.83;1.90;;;17.00;99.90;;;;;;20594015;28;20630;-77
2021/03/06 12:50:15;;;;;;;2.23;1.13;;;16.80;99.90;;;;;;20597876;28;20196;-77
2021/03/06 13:00:20;;;;;;;0.33;0.33;;;16.70;99.90;;;;;;20531644;28;20723;-76
2021/03/06 13:10:31;;;;;;;1.20;0.63;;;16.60;99.90;;;;;;20530830;28;20575;-74
2021/03/06 13:20:35;;;;;;;1.27;0.30;;;17.00;99.90;;;;;;20563161;28;20227;-74
2021/03/06 13:30:39;;;;;;;0.63;0.57;;;17.20;99.90;;;;;;20581237;28;20241;-77
2021/03/06 13:40:54;;;;;;;0.40;0.30;;;17.50;99.90;;;;;;20527981;28;20748;-77
2021/03/06 13:50:58;;;;;;;0.20;0.20;;;17.50;99.90;;;;;;20594354;28;20235;-75
2021/03/06 14:01:02;;;;;;;3.47;0.83;;;18.10;99.90;;;;;;20624041;28;20297;-77
2021/03/06 14:11:28;;;;;;;1.50;0.60;;;17.90;99.90;;;;;;20611730;28;20616;-78
2021/03/06 14:21:32;;;;;;;0.30;0.30;;;19.20;99.90;;;;;;20633401;23;20231;-74
2021/03/06 14:31:35;;;;;;;0.57;0.53;;;19.80;99.90;;;;;;20618177;28;20512;-72
2021/03/06 14:41:49;;;;;;;1.13;1.10;;;19.70;99.90;;;;;;20538651;28;20584;-72
2021/03/06 14:51:52;;;;;;;1.73;1.60;;;19.60;99.90;;;;;;20614424;28;20231;-72
2021/03/06 15:01:56;;;;;;;4.50;1.40;;;20.00;99.90;;;;;;20621722;28;20231;-72
2021/03/06 15:12:11;;;;;;;0.60;0.60;;;19.20;99.90;;;;;;20622471;28;20548;-73
2021/03/06 15:22:14;;;;;;;0.60;0.60;;;18.80;99.90;;;;;;20619779;28;20262;-74
2021/03/06 15:32:17;;;;;;;0.53;0.53;;;19.30;99.90;;;;;;20615850;28;20188;-72
2021/03/06 15:42:35;;;;;;;1.23;0.90;;;19.30;99.90;;;;;;20548533;28;20228;-73
2021/03/06 15:52:39;;;;;;;0.80;0.43;;;18.00;99.90;;;;;;20548728;28;20595;-73
2021/03/06 16:02:42;;;;;;;0.83;0.80;;;17.80;99.90;;;;;;20558415;28;20223;-73
2021/03/06 16:12:58;;;;;;;0.60;0.60;;;17.30;99.90;;;;;;20613075;28;20258;-73
2021/03/06 16:23:02;;;;;;;0.80;0.67;;;16.80;99.90;;;;;;20604266;28;20342;-72
2021/03/06 16:33:05;;;;;;;2.00;1.00;;;15.90;99.90;;;;;;20557387;28;20291;-72
2021/03/06 16:43:24;;;;;;;0.40;0.40;;;15.30;99.90;;;;;;20582893;28;20230;-71
2021/03/06 16:53:28;;;;;;;0.70;0.50;;;15.30;99.90;;;;;;20611541;28;20913;-72
2021/03/06 17:03:35;;;;;;;1.70;1.07;;;15.10;99.90;;;;;;20610336;28;20223;-70
2021/03/06 17:13:50;;;;;;;1.80;1.33;;;15.00;99.90;;;;;;20608001;28;20219;-71
2021/03/06 17:23:54;;;;;;;2.03;1.50;;;14.50;99.90;;;;;;20607134;28;20238;-72
2021/03/06 17:33:56;;;;;;;1.30;0.77;;;14.40;99.90;;;;;;20622501;28;20202;-73
2021/03/06 17:44:09;;;;;;;1.57;1.47;;;14.10;99.90;;;;;;20641593;28;20353;-72
2021/03/06 17:54:11;;;;;;;2.53;2.27;;;13.90;99.90;;;;;;20622222;28;20219;-73
2021/03/06 18:04:15;;;;;;;1.57;1.47;;;13.90;99.90;;;;;;20620924;28;20481;-73
2021/03/06 18:14:30;;;;;;;0.60;0.60;;;13.80;99.90;;;;;;20618381;28;20307;-72
2021/03/06 18:24:35;;;;;;;2.80;1.20;;;13.50;99.90;;;;;;20624421;28;20704;-73
2021/03/06 18:34:40;;;;;;;1.23;0.80;;;13.50;99.90;;;;;;20617099;28;20204;-73
2021/03/06 18:44:53;;;;;;;2.80;0.67;;;13.50;99.90;;;;;;20618636;28;20684;-71
2021/03/06 18:54:56;;;;;;;3.20;1.43;;;13.40;99.90;;;;;;20615878;28;20199;-74
2021/03/06 19:05:00;;;;;;;3.90;1.53;;;13.40;99.90;;;;;;20614308;28;20234;-72
2021/03/06 19:15:15;;;;;;;0.97;0.97;;;13.30;99.90;;;;;;20607389;28;20203;-74
2021/03/06 19:25:19;;;;;;;1.33;1.17;;;13.30;99.90;;;;;;20614594;28;20305;-73
2021/03/06 19:35:24;;;;;;;2.77;1.57;;;13.30;99.90;;;;;;20599901;28;20537;-72
2021/03/06 19:45:40;;;;;;;0.93;0.93;;;13.30;99.90;;;;;;20652010;28;20199;-73
2021/03/06 19:55:43;;;;;;;1.80;1.30;;;13.30;99.90;;;;;;20635038;28;20200;-70
2021/03/06 20:05:48;;;;;;;0.80;0.47;;;13.10;99.90;;;;;;20615089;28;20677;-72
2021/03/06 20:15:59;;;;;;;1.30;1.23;;;12.90;99.90;;;;;;20605439;28;20322;-71
2021/03/06 20:26:04;;;;;;;3.93;1.20;;;12.90;99.90;;;;;;20559951;28;20251;-72
2021/03/06 20:36:07;;;;;;;2.57;1.73;;;12.90;99.90;;;;;;20530504;28;20220;-73
2021/03/06 20:46:20;;;;;;;1.43;1.23;;;12.70;99.90;;;;;;20531750;28;20287;-70
2021/03/06 20:56:23;;;;;;;2.80;1.10;;;12.50;99.90;;;;;;20530345;28;20224;-73
2021/03/06 21:06:27;;;;;;;1.20;1.13;;;12.40;99.90;;;;;;20567115;28;20200;-72
2021/03/06 21:16:42;;;;;;;1.20;1.03;;;12.00;99.90;;;;;;20608633;28;20623;-74
2021/03/06 21:26:46;;;;;;;1.47;1.23;;;11.60;99.90;;;;;;20613613;28;20692;-73
2021/03/06 21:36:49;;;;;;;2.30;1.43;;;11.30;99.90;;;;;;20608273;28;20223;-74
2021/03/06 21:47:04;;;;;;;3.63;1.63;;;11.10;99.90;;;;;;20606271;28;20613;-74
2021/03/06 21:57:07;;;;;;;1.33;1.23;;;10.90;99.90;;;;;;20605461;28;20337;-75
2021/03/06 22:07:11;;;;;;;1.30;1.13;;;10.80;99.90;;;;;;20606175;28;20188;-74
2021/03/06 22:17:28;;;;;;;1.90;1.60;;;11.10;99.90;;;;;;20615985;28;20652;-74
2021/03/06 22:27:31;;;;;;;0.80;0.73;;;11.00;99.90;;;;;;20621529;28;20259;-74
2021/03/06 22:37:34;;;;;;;2.93;1.70;;;11.10;99.90;;;;;;20620646;28;20341;-73
2021/03/06 22:47:49;;;;;;;6.57;1.60;;;11.10;99.90;;;;;;20620071;28;20326;-74
2021/03/06 22:57:52;;;;;;;1.37;1.27;;;11.00;99.90;;;;;;20622747;28;20642;-75
2021/03/06 23:07:55;;;;;;;0.60;0.40;;;11.20;99.90;;;;;;20619949;28;20820;-73
2021/03/06 23:18:10;;;;;;;2.83;2.00;;;11.20;99.90;;;;;;20618765;28;20576;-75
2021/03/06 23:28:14;;;;;;;0.53;0.53;;;11.20;99.90;;;;;;20618693;28;20231;-73
2021/03/06 23:38:16;;;;;;;0.77;0.77;;;11.10;99.90;;;;;;20617315;28;20223;-74
2021/03/06 23:48:32;;;;;;;0.53;0.50;;;11.10;99.90;;;;;;20584642;28;20208;-76
2021/03/06 23:58:35;;;;;;;2.10;0.97;;;11.20;99.90;;;;;;20538561;28;20251;-74
